createdAt,value
2023-04-20T00:01:13.843Z,100577.59
2023-04-20T00:03:41.320Z,100572.78
2023-04-20T00:06:09.190Z,100575.75
2023-04-20T00:08:36.261Z,100573.16
2023-04-20T00:11:03.343Z,100570.16
2023-04-20T00:13:30.669Z,100569.44
2023-04-20T00:15:57.770Z,100555.78
2023-04-20T00:18:24.808Z,100555.66
2023-04-20T00:20:51.973Z,100558.81
2023-04-20T00:23:19.018Z,100558.69
2023-04-20T00:25:46.035Z,100563.44
2023-04-20T00:28:13.241Z,100552.97
2023-04-20T00:30:41.265Z,100549.88
2023-04-20T00:33:08.462Z,100553.22
2023-04-20T00:35:35.680Z,100554.94
2023-04-20T00:38:02.839Z,100565.00
2023-04-20T00:40:30.275Z,100565.44
2023-04-20T00:42:57.434Z,100566.03
2023-04-20T00:45:24.555Z,100578.66
2023-04-20T00:47:51.730Z,100576.84
2023-04-20T00:50:19.086Z,100584.25
2023-04-20T00:52:46.897Z,100593.81
2023-04-20T00:55:14.002Z,100601.09
2023-04-20T00:57:41.667Z,100596.63
2023-04-20T01:00:10.586Z,100593.13
2023-04-20T01:02:37.831Z,100584.13
2023-04-20T01:05:08.460Z,100579.81
2023-04-20T01:07:36.722Z,100574.69
2023-04-20T01:10:04.349Z,100564.66
2023-04-20T01:12:31.434Z,100567.84
2023-04-20T01:14:58.462Z,100557.94
2023-04-20T01:17:25.706Z,100557.47
2023-04-20T01:19:52.831Z,100552.91
2023-04-20T01:22:21.368Z,100548.16
2023-04-20T01:24:48.957Z,100536.38
2023-04-20T01:27:17.111Z,100534.13
2023-04-20T01:29:44.559Z,100526.56
2023-04-20T01:32:12.128Z,100516.56
2023-04-20T01:34:39.172Z,100516.25
2023-04-20T01:37:08.282Z,100514.00
2023-04-20T01:39:38.887Z,100515.78
2023-04-20T01:42:06.132Z,100512.72
2023-04-20T01:44:33.216Z,100509.78
2023-04-20T01:47:00.511Z,100511.47
2023-04-20T01:49:27.784Z,100509.88
2023-04-20T01:51:55.696Z,100510.91
2023-04-20T01:54:22.902Z,100520.69
2023-04-20T01:56:49.955Z,100518.78
2023-04-20T01:59:17.229Z,100524.34
2023-04-20T02:01:44.463Z,100516.38
2023-04-20T02:04:11.642Z,100517.28
2023-04-20T02:06:40.948Z,100518.09
2023-04-20T02:09:10.198Z,100525.59
2023-04-20T02:11:37.371Z,100523.22
2023-04-20T02:14:06.841Z,100531.41
2023-04-20T02:16:35.508Z,100528.78
2023-04-20T02:19:03.055Z,100526.63
2023-04-20T02:21:30.249Z,100524.69
2023-04-20T02:23:57.583Z,100529.69
2023-04-20T02:26:26.826Z,100520.38
2023-04-20T02:28:53.935Z,100520.16
2023-04-20T02:31:21.138Z,100522.09
2023-04-20T02:33:49.928Z,100523.44
2023-04-20T02:36:17.068Z,100515.94
2023-04-20T02:38:44.087Z,100522.53
2023-04-20T02:41:11.192Z,100521.97
2023-04-20T02:43:38.480Z,100520.81
2023-04-20T02:46:06.153Z,100523.44
2023-04-20T02:48:33.244Z,100519.44
2023-04-20T02:51:01.212Z,100512.28
2023-04-20T02:53:33.318Z,100507.97
2023-04-20T02:56:19.052Z,100505.09
2023-04-20T02:58:52.231Z,100503.63
2023-04-20T03:01:42.492Z,100501.72
2023-04-20T03:04:22.229Z,100504.88
2023-04-20T03:06:58.721Z,100501.59
2023-04-20T03:09:29.550Z,100505.13
2023-04-20T03:12:05.204Z,100505.13
2023-04-20T03:14:48.124Z,100503.06
2023-04-20T03:17:16.639Z,100507.06
2023-04-20T03:19:43.989Z,100508.63
2023-04-20T03:22:11.294Z,100501.25
2023-04-20T03:24:38.412Z,100497.03
2023-04-20T03:27:15.951Z,100496.94
2023-04-20T03:29:55.743Z,100493.63
2023-04-20T03:32:23.750Z,100496.47
2023-04-20T03:34:50.789Z,100491.47
2023-04-20T03:37:17.911Z,100493.97
2023-04-20T03:39:47.582Z,100501.91
2023-04-20T03:42:14.726Z,100493.63
2023-04-20T03:44:42.076Z,100489.06
2023-04-20T03:47:10.907Z,100491.69
2023-04-20T03:49:38.171Z,100490.44
2023-04-20T03:52:05.633Z,100488.19
2023-04-20T03:54:33.205Z,100490.00
2023-04-20T03:57:02.131Z,100487.72
2023-04-20T03:59:29.351Z,100493.63
2023-04-20T04:01:56.811Z,100488.16
2023-04-20T04:04:24.247Z,100481.00
2023-04-20T04:06:51.610Z,100491.13
2023-04-20T04:09:18.837Z,100490.31
2023-04-20T04:11:46.169Z,100493.16
2023-04-20T04:14:13.381Z,100500.13
2023-04-20T04:16:41.043Z,100485.19
2023-04-20T04:19:09.785Z,100485.19
2023-04-20T04:21:37.497Z,100491.22
2023-04-20T04:24:05.894Z,100498.75
2023-04-20T04:26:41.508Z,100508.09
2023-04-20T04:29:10.488Z,100509.13
2023-04-20T04:31:37.732Z,100509.13
2023-04-20T04:34:13.729Z,100511.28
2023-04-20T04:36:45.988Z,100508.31
2023-04-20T04:39:16.918Z,100516.97
2023-04-20T04:41:53.192Z,100517.97
2023-04-20T04:44:31.832Z,100511.06
2023-04-20T04:47:02.536Z,100511.63
2023-04-20T04:49:30.849Z,100516.50
2023-04-20T04:51:57.897Z,100508.41
2023-04-20T04:54:24.964Z,100507.84
2023-04-20T04:56:52.008Z,100502.59
2023-04-20T04:59:19.196Z,100494.16
2023-04-20T05:01:46.369Z,100487.13
2023-04-20T05:04:13.605Z,100497.72
2023-04-20T05:06:40.919Z,100513.09
2023-04-20T05:09:08.225Z,100512.63
2023-04-20T05:11:35.367Z,100516.06
2023-04-20T05:14:03.476Z,100516.84
2023-04-20T05:16:30.614Z,100506.72
2023-04-20T05:18:57.789Z,100509.97
2023-04-20T05:21:24.912Z,100506.38
2023-04-20T05:23:52.036Z,100508.41
2023-04-20T05:26:19.386Z,100518.69
2023-04-20T05:28:46.523Z,100520.25
2023-04-20T05:31:13.657Z,100525.59
2023-04-20T05:33:41.065Z,100528.53
2023-04-20T05:36:08.831Z,100529.72
2023-04-20T05:38:35.926Z,100527.19
2023-04-20T05:41:03.067Z,100521.59
2023-04-20T05:43:30.147Z,100520.34
2023-04-20T05:45:57.239Z,100525.25
2023-04-20T05:48:27.855Z,100525.31
2023-04-20T05:50:56.846Z,100526.69
2023-04-20T05:53:23.927Z,100531.13
2023-04-20T05:55:51.012Z,100540.78
2023-04-20T05:58:19.377Z,100538.28
2023-04-20T06:00:46.495Z,100535.56
2023-04-20T06:03:13.810Z,100544.09
2023-04-20T06:05:41.116Z,100545.59
2023-04-20T06:08:08.309Z,100548.97
2023-04-20T06:10:35.582Z,100540.44
2023-04-20T06:13:02.861Z,100536.69
2023-04-20T06:15:29.924Z,100546.41
2023-04-20T06:17:57.324Z,100541.31
2023-04-20T06:20:24.596Z,100528.47
2023-04-20T06:22:51.699Z,100538.22
2023-04-20T06:25:18.852Z,100533.69
2023-04-20T06:27:46.666Z,100544.50
2023-04-20T06:30:14.155Z,100543.59
2023-04-20T06:32:41.497Z,100539.69
2023-04-20T06:35:08.968Z,100542.69
2023-04-20T06:37:36.658Z,100551.00
2023-04-20T06:40:10.632Z,100547.72
2023-04-20T06:42:37.967Z,100548.88
2023-04-20T06:45:05.969Z,100550.00
2023-04-20T06:47:33.892Z,100555.97
2023-04-20T06:50:01.692Z,100549.81
2023-04-20T06:52:28.913Z,100560.06
2023-04-20T06:54:57.862Z,100551.03
2023-04-20T06:57:24.954Z,100554.59
2023-04-20T06:59:52.022Z,100556.44
2023-04-20T07:02:19.252Z,100558.25
2023-04-20T07:04:46.463Z,100557.09
2023-04-20T07:07:13.569Z,100558.97
2023-04-20T07:09:40.673Z,100559.69
2023-04-20T07:12:08.156Z,100558.31
2023-04-20T07:14:35.276Z,100558.59
2023-04-20T07:17:02.379Z,100563.25
2023-04-20T07:19:29.471Z,100563.13
2023-04-20T07:21:56.527Z,100564.34
2023-04-20T07:24:23.602Z,100558.59
2023-04-20T07:26:51.400Z,100560.56
2023-04-20T07:29:18.657Z,100554.31
2023-04-20T07:31:46.053Z,100566.69
2023-04-20T07:34:13.270Z,100558.78
2023-04-20T07:36:40.397Z,100571.53
2023-04-20T07:39:07.566Z,100562.94
2023-04-20T07:41:34.660Z,100566.16
2023-04-20T07:44:01.795Z,100572.16
2023-04-20T07:46:29.025Z,100575.69
2023-04-20T07:48:56.083Z,100578.84
2023-04-20T07:51:23.233Z,100577.34
2023-04-20T07:53:50.391Z,100581.06
2023-04-20T07:56:17.475Z,100582.38
2023-04-20T07:58:44.632Z,100586.53
2023-04-20T08:01:11.729Z,100575.31
2023-04-20T08:03:39.111Z,100572.69
2023-04-20T08:06:06.643Z,100574.72
2023-04-20T08:08:33.758Z,100567.09
2023-04-20T08:11:00.986Z,100572.78
2023-04-20T08:13:28.378Z,100577.97
2023-04-20T08:15:55.685Z,100571.22
2023-04-20T08:18:22.816Z,100576.63
2023-04-20T08:20:51.378Z,100574.16
2023-04-20T08:23:18.566Z,100570.16
2023-04-20T08:25:45.740Z,100573.63
2023-04-20T08:28:24.306Z,100568.88
2023-04-20T08:30:56.874Z,100563.47
2023-04-20T08:33:24.093Z,100574.44
2023-04-20T08:35:54.293Z,100570.84
2023-04-20T08:38:30.795Z,100566.19
2023-04-20T08:41:00.843Z,100565.38
2023-04-20T08:43:27.930Z,100571.59
2023-04-20T08:45:57.834Z,100575.56
2023-04-20T08:48:26.227Z,100575.44
2023-04-20T08:50:54.684Z,100576.13
2023-04-20T08:53:22.690Z,100572.06
2023-04-20T08:55:50.368Z,100573.44
2023-04-20T08:58:17.975Z,100567.50
2023-04-20T09:00:48.466Z,100562.59
2023-04-20T09:03:15.830Z,100558.09
2023-04-20T09:05:44.264Z,100559.56
2023-04-20T09:08:11.359Z,100557.97
2023-04-20T09:10:39.990Z,100561.53
2023-04-20T09:13:07.416Z,100556.81
2023-04-20T09:15:34.478Z,100561.28
2023-04-20T09:18:11.101Z,100560.78
2023-04-20T09:20:38.272Z,100561.25
2023-04-20T09:23:15.238Z,100554.59
2023-04-20T09:25:43.613Z,100561.44
2023-04-20T09:28:11.435Z,100556.56
2023-04-20T09:30:45.516Z,100557.75
2023-04-20T09:33:14.383Z,100558.31
2023-04-20T09:35:42.466Z,100558.47
2023-04-20T09:38:10.362Z,100565.22
2023-04-20T09:40:37.953Z,100556.22
2023-04-20T09:43:15.414Z,100554.38
2023-04-20T09:45:42.883Z,100562.63
2023-04-20T09:48:10.413Z,100568.75
2023-04-20T09:50:48.529Z,100569.94
2023-04-20T09:53:17.542Z,100568.94
2023-04-20T09:55:48.660Z,100574.25
2023-04-20T09:58:18.145Z,100577.97
2023-04-20T10:00:45.332Z,100574.63
2023-04-20T10:03:16.429Z,100583.00
2023-04-20T10:05:43.727Z,100579.72
2023-04-20T10:08:11.467Z,100584.25
2023-04-20T10:10:46.300Z,100585.13
2023-04-20T10:13:14.611Z,100585.00
2023-04-20T10:15:42.316Z,100584.69
2023-04-20T10:18:19.361Z,100590.00
2023-04-20T10:20:46.701Z,100592.91
2023-04-20T10:23:16.110Z,100588.13
2023-04-20T10:25:45.416Z,100591.97
2023-04-20T10:28:12.820Z,100591.97
2023-04-20T10:30:50.390Z,100599.91
2023-04-20T10:33:18.092Z,100595.22
2023-04-20T10:35:49.300Z,100593.44
2023-04-20T10:38:27.453Z,100600.50
2023-04-20T10:40:54.519Z,100599.38
2023-04-20T10:43:22.279Z,100611.91
2023-04-20T10:45:50.302Z,100606.94
2023-04-20T10:48:18.353Z,100605.31
2023-04-20T10:50:46.098Z,100606.78
2023-04-20T10:53:23.556Z,100600.94
2023-04-20T10:56:00.233Z,100611.47
2023-04-20T10:58:27.482Z,100612.13
2023-04-20T11:01:01.568Z,100610.41
2023-04-20T11:03:29.596Z,100612.44
2023-04-20T11:06:01.059Z,100606.19
2023-04-20T11:08:37.858Z,100606.53
2023-04-20T11:11:05.685Z,100603.84
2023-04-20T11:13:33.216Z,100597.00
2023-04-20T11:16:00.499Z,100592.03
2023-04-20T11:18:27.640Z,100590.97
2023-04-20T11:20:55.162Z,100580.81
2023-04-20T11:23:22.761Z,100567.94
2023-04-20T11:25:53.891Z,100561.78
2023-04-20T11:28:21.170Z,100550.88
2023-04-20T11:30:49.739Z,100556.44
2023-04-20T11:33:29.299Z,100561.59
2023-04-20T11:36:01.012Z,100560.31
2023-04-20T11:38:32.110Z,100559.91
2023-04-20T11:41:04.557Z,100558.13
2023-04-20T11:43:32.568Z,100561.19
2023-04-20T11:46:00.040Z,100561.53
2023-04-20T11:48:28.283Z,100550.91
2023-04-20T11:50:55.394Z,100556.69
2023-04-20T11:53:22.487Z,100573.00
2023-04-20T11:55:49.525Z,100560.09
2023-04-20T11:58:16.565Z,100561.13
2023-04-20T12:00:43.671Z,100564.03
2023-04-20T12:03:11.013Z,100563.38
2023-04-20T12:05:38.398Z,100570.00
2023-04-20T12:08:05.976Z,100566.75
2023-04-20T12:10:33.011Z,100566.53
2023-04-20T12:13:01.154Z,100571.53
2023-04-20T12:15:28.225Z,100563.06
2023-04-20T12:17:55.824Z,100567.13
2023-04-20T12:20:23.179Z,100563.53
2023-04-20T12:22:50.310Z,100567.69
2023-04-20T12:25:17.443Z,100564.41
2023-04-20T12:27:44.555Z,100560.25
2023-04-20T12:30:12.171Z,100555.81
2023-04-20T12:32:39.613Z,100557.56
2023-04-20T12:35:08.520Z,100555.81
2023-04-20T12:37:35.769Z,100556.72
2023-04-20T12:40:05.652Z,100556.06
2023-04-20T12:42:32.792Z,100554.41
2023-04-20T12:44:59.913Z,100555.88
2023-04-20T12:47:27.095Z,100555.97
2023-04-20T12:49:55.067Z,100537.94
2023-04-20T12:52:22.208Z,100541.22
2023-04-20T12:54:49.932Z,100542.09
2023-04-20T12:57:17.090Z,100542.09
2023-04-20T12:59:44.181Z,100542.41
2023-04-20T13:02:11.977Z,100537.31
2023-04-20T13:04:39.186Z,100528.56
2023-04-20T13:07:07.065Z,100528.63
2023-04-20T13:09:34.162Z,100516.31
2023-04-20T13:12:01.345Z,100511.56
2023-04-20T13:14:28.473Z,100515.03
2023-04-20T13:16:55.902Z,100514.06
2023-04-20T13:19:23.219Z,100509.59
2023-04-20T13:21:50.509Z,100511.69
2023-04-20T13:24:17.865Z,100517.31
2023-04-20T13:26:45.208Z,100525.75
2023-04-20T13:29:12.356Z,100518.69
2023-04-20T13:31:40.627Z,100515.66
2023-04-20T13:34:07.860Z,100526.00
2023-04-20T13:36:34.964Z,100525.13
2023-04-20T13:39:02.155Z,100522.19
2023-04-20T13:41:29.282Z,100516.56
2023-04-20T13:43:57.706Z,100521.31
2023-04-20T13:46:24.921Z,100521.16
2023-04-20T13:48:52.108Z,100517.09
2023-04-20T13:51:19.460Z,100516.56
2023-04-20T13:53:49.672Z,100519.09
2023-04-20T13:56:16.946Z,100510.13
2023-04-20T13:58:44.243Z,100506.41
2023-04-20T14:01:12.356Z,100513.50
2023-04-20T14:03:39.632Z,100518.63
2023-04-20T14:06:06.956Z,100519.34
2023-04-20T14:08:34.046Z,100517.34
2023-04-20T14:11:01.152Z,100522.03
2023-04-20T14:13:28.381Z,100522.03
2023-04-20T14:15:55.472Z,100521.06
2023-04-20T14:18:22.651Z,100518.41
2023-04-20T14:20:52.354Z,100519.84
2023-04-20T14:23:19.796Z,100515.69
2023-04-20T14:25:46.906Z,100535.09
2023-04-20T14:28:14.645Z,100530.66
2023-04-20T14:30:43.221Z,100520.28
2023-04-20T14:33:10.740Z,100521.44
2023-04-20T14:35:38.016Z,100522.28
2023-04-20T14:38:05.367Z,100525.78
2023-04-20T14:40:32.494Z,100529.22
2023-04-20T14:42:59.640Z,100533.97
2023-04-20T14:45:26.700Z,100545.19
2023-04-20T14:47:54.899Z,100537.34
2023-04-20T14:50:22.655Z,100540.88
2023-04-20T14:52:49.812Z,100544.22
2023-04-20T14:55:17.046Z,100546.31
2023-04-20T14:57:44.135Z,100543.16
2023-04-20T15:00:11.698Z,100540.16
2023-04-20T15:02:39.040Z,100535.09
2023-04-20T15:05:10.003Z,100531.09
2023-04-20T15:07:37.771Z,100531.06
2023-04-20T15:10:05.673Z,100529.16
2023-04-20T15:12:32.836Z,100541.50
2023-04-20T15:14:59.923Z,100546.84
2023-04-20T15:17:27.043Z,100539.53
2023-04-20T15:19:54.218Z,100534.50
2023-04-20T15:22:21.460Z,100541.88
2023-04-20T15:24:48.550Z,100539.31
2023-04-20T15:27:17.104Z,100529.06
2023-04-20T15:29:44.167Z,100522.38
2023-04-20T15:32:11.361Z,100526.59
2023-04-20T15:34:38.540Z,100523.22
2023-04-20T15:37:05.778Z,100522.88
2023-04-20T15:39:32.842Z,100529.22
2023-04-20T15:41:59.946Z,100532.28
2023-04-20T15:44:27.066Z,100537.13
2023-04-20T15:46:54.144Z,100525.56
2023-04-20T15:49:21.548Z,100534.13
2023-04-20T15:51:48.774Z,100517.19
2023-04-20T15:54:16.145Z,100529.03
2023-04-20T15:56:43.439Z,100525.97
2023-04-20T15:59:10.535Z,100532.97
2023-04-20T16:01:37.776Z,100528.59
2023-04-20T16:04:05.109Z,100529.47
2023-04-20T16:06:32.417Z,100526.41
2023-04-20T16:08:59.497Z,100529.06
2023-04-20T16:11:26.641Z,100529.72
2023-04-20T16:13:55.411Z,100539.53
2023-04-20T16:16:22.817Z,100541.59
2023-04-20T16:18:50.872Z,100530.53
2023-04-20T16:21:18.667Z,100531.81
2023-04-20T16:23:45.790Z,100540.25
2023-04-20T16:26:12.820Z,100539.09
2023-04-20T16:28:39.852Z,100543.97
2023-04-20T16:31:07.061Z,100534.56
2023-04-20T16:33:36.752Z,100539.50
2023-04-20T16:36:04.193Z,100539.25
2023-04-20T16:38:31.252Z,100539.63
2023-04-20T16:40:58.430Z,100539.69
2023-04-20T16:43:25.926Z,100545.81
2023-04-20T16:45:53.104Z,100545.66
2023-04-20T16:48:20.160Z,100543.44
2023-04-20T16:50:47.252Z,100546.31
2023-04-20T16:53:14.329Z,100542.03
2023-04-20T16:55:41.457Z,100541.19
2023-04-20T16:58:08.548Z,100541.53
2023-04-20T17:00:35.828Z,100542.69
2023-04-20T17:03:06.012Z,100542.34
2023-04-20T17:05:33.206Z,100552.84
2023-04-20T17:08:00.216Z,100545.56
2023-04-20T17:10:27.284Z,100552.63
2023-04-20T17:12:54.350Z,100555.25
2023-04-20T17:15:21.529Z,100552.75
2023-04-20T17:17:48.638Z,100561.31
2023-04-20T17:20:16.101Z,100568.91
2023-04-20T17:22:43.233Z,100579.41
2023-04-20T17:25:10.360Z,100584.22
2023-04-20T17:27:37.441Z,100596.63
2023-04-20T17:30:05.109Z,100613.34
2023-04-20T17:32:32.172Z,100622.31
2023-04-20T17:34:59.308Z,100631.41
2023-04-20T17:37:26.460Z,100644.28
2023-04-20T17:39:53.896Z,100640.03
2023-04-20T17:42:21.008Z,100653.50
2023-04-20T17:44:48.057Z,100652.16
2023-04-20T17:47:15.215Z,100656.25
2023-04-20T17:49:43.325Z,100660.63
2023-04-20T17:52:14.899Z,100673.16
2023-04-20T17:54:42.171Z,100674.97
2023-04-20T17:57:09.528Z,100673.28
2023-04-20T17:59:36.547Z,100678.59
2023-04-20T18:02:03.801Z,100671.06
2023-04-20T18:04:31.314Z,100672.19
2023-04-20T18:06:58.461Z,100671.47
2023-04-20T18:09:25.544Z,100689.19
2023-04-20T18:11:52.953Z,100671.25
2023-04-20T18:14:21.159Z,100676.59
2023-04-20T18:16:51.886Z,100675.47
2023-04-20T18:19:19.104Z,100661.72
2023-04-20T18:21:46.321Z,100666.00
2023-04-20T18:24:13.418Z,100663.38
2023-04-20T18:26:40.517Z,100660.31
2023-04-20T18:29:07.620Z,100654.50
2023-04-20T18:31:34.801Z,100659.38
2023-04-20T18:34:01.966Z,100656.44
2023-04-20T18:36:29.682Z,100658.59
2023-04-20T18:38:57.455Z,100663.00
2023-04-20T18:41:25.738Z,100660.28
2023-04-20T18:43:53.542Z,100667.34
2023-04-20T18:46:20.717Z,100674.59
2023-04-20T18:48:47.813Z,100679.44
2023-04-20T18:51:14.991Z,100681.75
2023-04-20T18:53:42.079Z,100687.97
2023-04-20T18:56:10.280Z,100689.94
2023-04-20T18:58:37.520Z,100684.63
2023-04-20T19:01:05.010Z,100688.53
2023-04-20T19:03:32.432Z,100689.66
2023-04-20T19:05:59.684Z,100685.63
2023-04-20T19:08:26.881Z,100690.09
2023-04-20T19:10:57.346Z,100684.53
2023-04-20T19:13:24.662Z,100683.72
2023-04-20T19:15:55.076Z,100686.00
2023-04-20T19:18:22.275Z,100681.41
2023-04-20T19:20:49.349Z,100686.44
2023-04-20T19:23:17.884Z,100684.34
2023-04-20T19:25:45.009Z,100681.06
2023-04-20T19:28:12.238Z,100678.69
2023-04-20T19:30:39.528Z,100680.56
2023-04-20T19:33:06.807Z,100682.28
2023-04-20T19:35:33.919Z,100682.31
2023-04-20T19:38:01.068Z,100687.34
2023-04-20T19:40:28.408Z,100690.00
2023-04-20T19:42:55.553Z,100690.69
2023-04-20T19:45:23.627Z,100695.88
2023-04-20T19:47:51.817Z,100693.13
2023-04-20T19:50:19.061Z,100690.59
2023-04-20T19:52:46.218Z,100688.34
2023-04-20T19:55:13.448Z,100688.56
2023-04-20T19:57:40.609Z,100696.81
2023-04-20T20:00:08.822Z,100695.47
2023-04-20T20:02:44.787Z,100693.03
2023-04-20T20:05:12.226Z,100690.22
2023-04-20T20:07:39.291Z,100694.69
2023-04-20T20:10:06.501Z,100697.75
2023-04-20T20:12:33.704Z,100697.28
2023-04-20T20:15:01.066Z,100705.06
2023-04-20T20:17:28.268Z,100705.13
2023-04-20T20:19:56.160Z,100704.53
2023-04-20T20:22:23.269Z,100706.81
2023-04-20T20:24:52.220Z,100707.44
2023-04-20T20:27:19.394Z,100702.75
2023-04-20T20:29:46.593Z,100695.09
2023-04-20T20:32:13.664Z,100691.09
2023-04-20T20:34:41.380Z,100697.34
2023-04-20T20:37:10.295Z,100692.31
2023-04-20T20:39:38.676Z,100689.44
2023-04-20T20:42:07.133Z,100693.31
2023-04-20T20:44:40.090Z,100694.34
2023-04-20T20:47:07.257Z,100693.50
2023-04-20T20:49:34.588Z,100692.53
2023-04-20T20:52:02.382Z,100679.78
2023-04-20T20:54:29.447Z,100684.97
2023-04-20T20:56:57.539Z,100683.06
2023-04-20T20:59:24.698Z,100685.97
2023-04-20T21:01:51.753Z,100691.38
2023-04-20T21:04:19.001Z,100678.38
2023-04-20T21:06:46.120Z,100691.63
2023-04-20T21:09:14.732Z,100688.56
2023-04-20T21:11:41.998Z,100690.69
2023-04-20T21:14:09.143Z,100681.97
2023-04-20T21:16:36.294Z,100676.50
2023-04-20T21:19:03.406Z,100682.97
2023-04-20T21:21:30.435Z,100675.41
2023-04-20T21:23:57.483Z,100688.94
2023-04-20T21:26:24.606Z,100687.50
2023-04-20T21:28:51.639Z,100698.66
2023-04-20T21:31:18.719Z,100691.63
2023-04-20T21:33:46.001Z,100696.16
2023-04-20T21:36:13.038Z,100697.97
2023-04-20T21:38:40.199Z,100703.34
2023-04-20T21:41:07.685Z,100698.38
2023-04-20T21:43:34.729Z,100696.22
2023-04-20T21:46:01.800Z,100690.56
2023-04-20T21:48:29.109Z,100692.50
2023-04-20T21:50:56.146Z,100690.38
2023-04-20T21:53:23.299Z,100689.84
2023-04-20T21:55:50.629Z,100687.75
2023-04-20T21:58:17.715Z,100688.03
2023-04-20T22:00:44.776Z,100684.31
2023-04-20T22:03:12.102Z,100680.38
2023-04-20T22:05:39.255Z,100687.09
2023-04-20T22:08:06.734Z,100694.09
2023-04-20T22:10:33.888Z,100697.03
2023-04-20T22:13:00.951Z,100699.16
2023-04-20T22:15:28.069Z,100705.22
2023-04-20T22:17:55.266Z,100701.28
2023-04-20T22:20:22.522Z,100710.19
2023-04-20T22:22:49.770Z,100707.25
2023-04-20T22:25:16.866Z,100706.38
2023-04-20T22:27:44.140Z,100713.84
2023-04-20T22:30:11.455Z,100716.91
2023-04-20T22:32:38.807Z,100708.13
2023-04-20T22:35:06.244Z,100711.78
2023-04-20T22:37:33.599Z,100715.97
2023-04-20T22:40:00.775Z,100716.97
2023-04-20T22:42:27.922Z,100718.38
2023-04-20T22:44:55.190Z,100712.19
2023-04-20T22:47:22.453Z,100711.59
2023-04-20T22:49:51.443Z,100713.56
2023-04-20T22:52:18.631Z,100709.19
2023-04-20T22:54:48.232Z,100709.66
2023-04-20T22:57:16.055Z,100707.97
2023-04-20T22:59:43.231Z,100705.38
2023-04-20T23:02:10.617Z,100708.44
2023-04-20T23:04:37.820Z,100709.03
2023-04-20T23:07:05.095Z,100713.22
2023-04-20T23:09:33.914Z,100707.16
2023-04-20T23:12:03.473Z,100708.38
2023-04-20T23:14:30.536Z,100699.69
2023-04-20T23:17:00.074Z,100705.13
2023-04-20T23:19:28.401Z,100689.31
2023-04-20T23:21:55.603Z,100683.88
2023-04-20T23:24:22.698Z,100688.25
2023-04-20T23:26:49.795Z,100684.06
2023-04-20T23:29:17.141Z,100690.69
2023-04-20T23:31:44.529Z,100681.75
2023-04-20T23:34:11.865Z,100683.22
2023-04-20T23:36:39.054Z,100688.44
2023-04-20T23:39:06.348Z,100679.25
2023-04-20T23:41:33.653Z,100676.44
2023-04-20T23:44:00.897Z,100676.50
2023-04-20T23:46:28.395Z,100682.31
2023-04-20T23:48:55.819Z,100679.50
2023-04-20T23:51:22.979Z,100673.13
2023-04-20T23:53:50.149Z,100673.13
2023-04-20T23:56:17.212Z,100665.88
2023-04-20T23:58:44.416Z,100667.25
